Terminal Aerodrome Forecast
Issued by NWS Topeka, KS

Home | Current Version | Previous Version | Text Only | Print | Product List | Glossary On
Versions: 1 2 3 4 5 6 7 8 9 10 11 12 13 14 15 16 17 18 19
000
FTUS43 KTOP 131100
TAFTOP
TAF
KTOP 131133Z 1312/1412 14012KT P6SM SCT025 BKN035 OVC100
     FM131700 18017G27KT P6SM VCTS BKN035CB
     FM131900 VRB08KT 4SM TSRA BKN015CB OVC040
      TEMPO 1319/1321 2SM TSRA BKN008CB OVC015
     FM132100 35017G27KT 4SM TSRA OVC015CB
     FM140000 35020G32KT 4SM -DZ OVC015=

USA.gov is the U.S. government's official web portal to all federal, state and local government web resources and services.